Time;durP1;ratioP1;P1;durP2;ratioP2;P2;SDS_P1;SDS_P2;PMS_P1;PMS_P2;Temp;Humidity;BMP_temperature;BMP_pressure;BME280_temperature;BME280_humidity;BME280_pressure;Samples;Min_cycle;Max_cycle;Signal;HPM_P1;HPM_P2
2023/06/02 00:00:09;;;;;;;;;;;;;;;19.10;56.69;99518.44;3141637;28;19924;-68
2023/06/02 00:01:43;;;;;;;;;;;;;;;19.07;56.62;99517.88;3141245;28;19968;-68
2023/06/02 00:03:14;;;;;;;;;;;;;;;19.03;56.83;99517.31;3133166;28;19936;-67
2023/06/02 00:04:45;;;;;;;;;;;;;;;19.00;56.98;99522.84;3132622;28;19931;-68
2023/06/02 00:06:18;;;;;;;;;;;;;;;19.00;57.04;99516.72;3141641;28;20010;-67
2023/06/02 00:07:51;;;;;;;;;;;;;;;18.97;56.91;99511.72;3141164;28;19930;-67
2023/06/02 00:09:22;;;;;;;;;;;;;;;18.96;56.88;99517.94;3140952;28;20014;-68
2023/06/02 00:10:54;;;;;;;;;;;;;;;18.94;57.03;99518.09;3136833;28;19925;-68
2023/06/02 00:12:26;;;;;;;;;;;;;;;18.94;57.27;99515.44;3139619;28;19924;-67
2023/06/02 00:13:57;;;;;;;;;;;;;;;18.94;57.08;99511.97;3141355;28;19938;-67
2023/06/02 00:15:29;;;;;;;;;;;;;;;18.93;57.09;99515.56;3141480;28;19924;-67
2023/06/02 00:17:01;;;;;;;;;;;;;;;18.91;57.31;99507.78;3140499;28;19948;-68
2023/06/02 00:18:33;;;;;;;;;;;;;;;18.91;57.26;99506.97;3138542;28;20581;-67
2023/06/02 00:20:05;;;;;;;;;;;;;;;18.90;57.33;99507.91;3138990;28;20468;-67
2023/06/02 00:21:37;;;;;;;;;;;;;;;18.87;57.27;99506.34;3141122;28;20192;-67
2023/06/02 00:23:09;;;;;;;;;;;;;;;18.85;57.34;99506.50;3141015;28;20295;-68
2023/06/02 00:24:41;;;;;;;;;;;;;;;18.84;57.49;99507.47;3141316;28;19924;-68
2023/06/02 00:26:14;;;;;;;;;;;;;;;18.81;57.64;99499.81;3141050;28;19924;-69
2023/06/02 00:27:44;;;;;;;;;;;;;;;18.77;57.87;99498.38;3136075;28;19924;-69
2023/06/02 00:29:16;;;;;;;;;;;;;;;18.77;58.00;99497.56;3134724;28;20523;-68
2023/06/02 00:30:48;;;;;;;;;;;;;;;18.75;57.83;99497.69;3141163;28;19924;-68
2023/06/02 00:32:19;;;;;;;;;;;;;;;18.73;57.73;99498.75;3134017;28;20349;-69
2023/06/02 00:33:51;;;;;;;;;;;;;;;18.72;57.86;99492.63;3136472;28;19990;-68
2023/06/02 00:35:21;;;;;;;;;;;;;;;18.70;57.84;99494.56;3140654;28;19932;-68
2023/06/02 00:36:53;;;;;;;;;;;;;;;18.69;57.83;99492.03;3132673;28;19962;-68
2023/06/02 00:38:24;;;;;;;;;;;;;;;18.68;57.85;99496.50;3141165;28;19989;-68
2023/06/02 00:39:55;;;;;;;;;;;;;;;18.69;57.85;99497.31;3133513;28;20754;-68
2023/06/02 00:41:29;;;;;;;;;;;;;;;18.69;58.17;99502.59;3140407;28;20381;-68
2023/06/02 00:43:00;;;;;;;;;;;;;;;18.67;58.13;99497.47;3131340;28;19924;-68
2023/06/02 00:44:32;;;;;;;;;;;;;;;18.65;58.14;99502.03;3139365;28;19959;-68
2023/06/02 00:46:04;;;;;;;;;;;;;;;18.65;58.03;99496.75;3132232;28;19925;-68
2023/06/02 00:47:34;;;;;;;;;;;;;;;18.65;58.17;99496.75;3132485;28;19938;-66
2023/06/02 00:49:06;;;;;;;;;;;;;;;18.62;58.24;99497.00;3136705;28;19958;-67
2023/06/02 00:50:38;;;;;;;;;;;;;;;18.60;58.27;99496.28;3133269;28;19939;-66
2023/06/02 00:52:10;;;;;;;;;;;;;;;18.59;58.31;99490.19;3135108;28;19928;-66
2023/06/02 00:53:42;;;;;;;;;;;;;;;18.60;58.19;99493.66;3140690;28;20367;-66
2023/06/02 00:55:13;;;;;;;;;;;;;;;18.60;58.25;99499.78;3135051;28;20306;-66
2023/06/02 00:56:46;;;;;;;;;;;;;;;18.58;58.58;99501.72;3140536;28;19932;-66
2023/06/02 00:58:18;;;;;;;;;;;;;;;18.51;59.04;99503.16;3135232;28;20047;-67
2023/06/02 00:59:49;;;;;;;;;;;;;;;18.39;59.40;99505.00;3131676;28;19975;-66
2023/06/02 01:01:21;;;;;;;;;;;;;;;18.28;59.76;99499.81;3140687;28;19974;-66
2023/06/02 01:02:52;;;;;;;;;;;;;;;18.21;59.80;99503.06;3136450;28;19964;-67
2023/06/02 01:04:24;;;;;;;;;;;;;;;18.18;59.99;99504.97;3140442;28;19974;-66
2023/06/02 01:05:57;;;;;;;;;;;;;;;18.16;59.99;99498.16;3140654;28;19933;-67
2023/06/02 01:07:29;;;;;;;;;;;;;;;18.17;59.93;99507.75;3130806;28;20420;-67
2023/06/02 01:09:18;;;;;;;;;;;;;;;18.19;59.65;99505.84;3141129;28;20125;-67
2023/06/02 01:10:51;;;;;;;;;;;;;;;18.19;59.60;99500.56;3145787;28;19977;-67
2023/06/02 01:12:24;;;;;;;;;;;;;;;18.19;59.55;99498.75;3143710;28;20003;-67
2023/06/02 01:13:55;;;;;;;;;;;;;;;18.19;59.57;99497.94;3127329;28;19921;-67
2023/06/02 01:15:27;;;;;;;;;;;;;;;18.16;59.55;99496.38;3145035;28;19920;-67
2023/06/02 01:16:59;;;;;;;;;;;;;;;18.12;59.79;99500.19;3138239;28;20007;-67
2023/06/02 01:18:35;;;;;;;;;;;;;;;18.07;59.92;99494.50;3143401;28;19931;-67
2023/06/02 01:20:07;;;;;;;;;;;;;;;18.04;60.07;99496.50;3145395;28;19968;-68
2023/06/02 01:21:39;;;;;;;;;;;;;;;18.02;59.89;99501.94;3145165;28;19927;-67
2023/06/02 01:23:15;;;;;;;;;;;;;;;18.01;60.00;99499.41;3145247;28;19931;-68
2023/06/02 01:24:48;;;;;;;;;;;;;;;18.02;59.98;99498.47;3145213;28;19974;-67
2023/06/02 01:26:20;;;;;;;;;;;;;;;18.03;59.85;99494.84;3145371;28;20019;-67
2023/06/02 01:27:51;;;;;;;;;;;;;;;18.02;59.87;99494.03;3139636;28;20038;-66
2023/06/02 01:29:23;;;;;;;;;;;;;;;18.04;59.84;99499.16;3139184;28;19925;-66
2023/06/02 01:31:00;;;;;;;;;;;;;;;18.05;59.74;99495.56;3145369;28;19924;-66
2023/06/02 01:32:33;;;;;;;;;;;;;;;18.05;59.87;99496.41;3140891;28;20334;-65
2023/06/02 01:34:09;;;;;;;;;;;;;;;18.05;59.89;99498.22;3145659;28;20026;-66
2023/06/02 01:35:44;;;;;;;;;;;;;;;18.05;59.82;99500.84;3140596;28;19927;-65
2023/06/02 01:37:15;;;;;;;;;;;;;;;18.04;59.74;99502.63;3132022;28;20006;-66
2023/06/02 01:38:48;;;;;;;;;;;;;;;18.03;59.76;99493.03;3145225;28;20326;-66
2023/06/02 01:40:20;;;;;;;;;;;;;;;18.03;59.68;99494.84;3145276;28;20300;-66
2023/06/02 01:41:53;;;;;;;;;;;;;;;18.02;59.82;99498.47;3142525;28;19920;-66
2023/06/02 01:43:25;;;;;;;;;;;;;;;18.01;59.88;99502.03;3131904;28;19920;-66
2023/06/02 01:44:57;;;;;;;;;;;;;;;17.98;60.17;99497.00;3145070;28;19924;-66
2023/06/02 01:46:28;;;;;;;;;;;;;;;17.93;60.41;99505.31;3141242;28;19924;-67
2023/06/02 01:48:00;;;;;;;;;;;;;;;17.88;60.42;99503.03;3145318;28;19927;-68
2023/06/02 01:49:31;;;;;;;;;;;;;;;17.88;60.51;99502.19;3145310;28;20389;-68
2023/06/02 01:51:03;;;;;;;;;;;;;;;17.84;60.69;99501.59;3145431;28;19924;-68
2023/06/02 01:52:33;;;;;;;;;;;;;;;17.75;61.19;99499.69;3142095;28;19928;-68
2023/06/02 01:54:05;;;;;;;;;;;;;;;17.68;61.17;99498.47;3140828;28;20302;-68
2023/06/02 01:55:39;;;;;;;;;;;;;;;17.64;61.41;99497.06;3132987;28;20307;-68
2023/06/02 01:57:10;;;;;;;;;;;;;;;17.62;61.35;99497.16;3140610;28;20312;-68
2023/06/02 01:58:42;;;;;;;;;;;;;;;17.60;61.41;99488.56;3139634;28;19931;-68
2023/06/02 02:00:13;;;;;;;;;;;;;;;17.59;61.57;99491.31;3145030;28;20026;-68
2023/06/02 02:01:45;;;;;;;;;;;;;;;17.57;61.56;99491.44;3140919;28;19932;-69
2023/06/02 02:03:17;;;;;;;;;;;;;;;17.58;61.57;99492.28;3145476;28;19927;-67
2023/06/02 02:04:49;;;;;;;;;;;;;;;17.57;61.58;99493.22;3144863;28;19974;-68
2023/06/02 02:06:24;;;;;;;;;;;;;;;17.56;61.59;99502.91;3145078;28;19920;-68
2023/06/02 02:07:57;;;;;;;;;;;;;;;17.55;61.53;99493.34;3145009;28;20398;-68
2023/06/02 02:09:29;;;;;;;;;;;;;;;17.52;61.78;99497.06;3144746;28;20382;-68
2023/06/02 02:11:02;;;;;;;;;;;;;;;17.52;61.99;99496.22;3134839;28;19959;-68
2023/06/02 02:12:33;;;;;;;;;;;;;;;17.51;61.66;99500.66;3142886;28;19970;-67
2023/06/02 02:14:05;;;;;;;;;;;;;;;17.52;61.68;99498.88;3145028;28;20047;-68
2023/06/02 02:15:37;;;;;;;;;;;;;;;17.53;61.68;99497.91;3141650;28;19959;-68
2023/06/02 02:17:09;;;;;;;;;;;;;;;17.53;61.69;99497.91;3144774;28;20014;-68
2023/06/02 02:18:41;;;;;;;;;;;;;;;17.52;61.93;99499.69;3145075;28;20382;-68
2023/06/02 02:20:12;;;;;;;;;;;;;;;17.51;61.95;99503.28;3145103;28;19928;-68
2023/06/02 02:21:44;;;;;;;;;;;;;;;17.50;62.07;99493.69;3145189;28;19924;-67
2023/06/02 02:23:15;;;;;;;;;;;;;;;17.49;62.17;99496.47;3144309;28;20398;-68
2023/06/02 02:24:47;;;;;;;;;;;;;;;17.48;62.10;99490.38;3136551;28;20322;-67
2023/06/02 02:26:19;;;;;;;;;;;;;;;17.47;62.18;99491.31;3145335;28;19928;-68
2023/06/02 02:27:51;;;;;;;;;;;;;;;17.45;62.30;99493.25;3139843;28;19979;-68
2023/06/02 02:29:22;;;;;;;;;;;;;;;17.45;62.48;99488.00;3145336;28;19939;-67
2023/06/02 02:30:54;;;;;;;;;;;;;;;17.44;62.18;99494.19;3135030;28;19931;-67
2023/06/02 02:32:25;;;;;;;;;;;;;;;17.44;62.48;99496.81;3139060;28;20383;-68
2023/06/02 02:33:57;;;;;;;;;;;;;;;17.42;62.51;99490.00;3146156;28;19924;-67
2023/06/02 02:35:28;;;;;;;;;;;;;;;17.42;62.49;99490.00;3143342;28;19931;-68
2023/06/02 02:37:01;;;;;;;;;;;;;;;17.41;62.39;99491.78;3134353;28;19921;-68
2023/06/02 02:38:33;;;;;;;;;;;;;;;17.40;62.50;99495.41;3140574;28;20023;-68
2023/06/02 02:40:05;;;;;;;;;;;;;;;17.39;62.79;99491.09;3141990;28;19925;-68
2023/06/02 02:41:37;;;;;;;;;;;;;;;17.37;62.59;99486.91;3147675;28;20412;-67
2023/06/02 02:43:08;;;;;;;;;;;;;;;17.34;62.62;99487.16;3136954;28;20007;-67
2023/06/02 02:44:40;;;;;;;;;;;;;;;17.32;62.65;99481.16;3146699;28;19927;-68
2023/06/02 02:46:10;;;;;;;;;;;;;;;17.30;62.80;99486.53;3137864;28;19974;-67
2023/06/02 02:47:42;;;;;;;;;;;;;;;17.28;62.91;99488.47;3135436;28;20015;-67
2023/06/02 02:49:13;;;;;;;;;;;;;;;17.25;62.83;99481.63;3144207;28;19932;-67
2023/06/02 02:50:44;;;;;;;;;;;;;;;17.24;63.05;99485.25;3147352;28;19921;-68
2023/06/02 02:52:15;;;;;;;;;;;;;;;17.23;63.10;99478.28;3137627;28;19928;-67
2023/06/02 02:53:46;;;;;;;;;;;;;;;17.22;62.93;99479.25;3141392;28;19943;-68
2023/06/02 02:55:18;;;;;;;;;;;;;;;17.21;63.20;99479.34;3142364;28;19994;-67
2023/06/02 02:56:51;;;;;;;;;;;;;;;17.20;63.28;99485.59;3147250;28;19943;-67
2023/06/02 02:58:24;;;;;;;;;;;;;;;17.18;63.30;99482.22;3141366;28;20267;-68
2023/06/02 02:59:56;;;;;;;;;;;;;;;17.19;63.38;99487.38;3146948;28;19924;-68
2023/06/02 03:01:27;;;;;;;;;;;;;;;17.20;63.37;99488.22;3143539;28;20007;-67
2023/06/02 03:03:01;;;;;;;;;;;;;;;17.19;63.28;99484.75;3144426;28;19932;-68
2023/06/02 03:04:32;;;;;;;;;;;;;;;17.22;63.40;99481.06;3137035;28;19924;-68
2023/06/02 03:06:03;;;;;;;;;;;;;;;17.21;63.46;99476.72;3144867;28;20371;-68
2023/06/02 03:07:35;;;;;;;;;;;;;;;17.22;63.43;99475.78;3147246;28;20003;-68
2023/06/02 03:09:05;;;;;;;;;;;;;;;17.24;63.19;99476.47;3147278;28;20303;-68
2023/06/02 03:10:37;;;;;;;;;;;;;;;17.24;63.10;99482.59;3146846;28;19927;-67
2023/06/02 03:12:10;;;;;;;;;;;;;;;17.24;63.16;99481.75;3146965;28;19924;-68
2023/06/02 03:13:41;;;;;;;;;;;;;;;17.24;63.21;99476.47;3143886;28;20241;-68
2023/06/02 03:15:13;;;;;;;;;;;;;;;17.22;63.33;99481.88;3146432;28;20240;-68
2023/06/02 03:16:44;;;;;;;;;;;;;;;17.22;63.08;99481.88;3144685;28;19924;-67
2023/06/02 03:18:16;;;;;;;;;;;;;;;17.22;63.12;99481.88;3147450;28;19920;-68
2023/06/02 03:19:48;;;;;;;;;;;;;;;17.22;63.22;99486.31;3139202;28;19978;-68
2023/06/02 03:21:18;;;;;;;;;;;;;;;17.22;63.30;99488.94;3143106;28;19920;-68
2023/06/02 03:22:51;;;;;;;;;;;;;;;17.21;63.26;99487.25;3146620;28;20385;-68
2023/06/02 03:24:22;;;;;;;;;;;;;;;17.20;63.46;99494.31;3147123;28;19989;-68
2023/06/02 03:25:53;;;;;;;;;;;;;;;17.19;63.49;99497.06;3146732;28;20321;-69
2023/06/02 03:27:27;;;;;;;;;;;;;;;17.16;63.78;99490.25;3144820;28;20007;-68
2023/06/02 03:28:58;;;;;;;;;;;;;;;17.11;63.87;99484.50;3138736;28;20394;-68
2023/06/02 03:30:30;;;;;;;;;;;;;;;17.14;63.84;99491.31;3142672;28;19927;-68
2023/06/02 03:32:09;;;;;;;;;;;;;;;17.11;63.82;99486.31;3146909;28;19920;-68
2023/06/02 03:33:39;;;;;;;;;;;;;;;17.10;63.89;99487.25;3146893;28;19969;-67
2023/06/02 03:35:11;;;;;;;;;;;;;;;17.09;64.23;99493.47;3135499;28;20004;-68
2023/06/02 03:36:43;;;;;;;;;;;;;;;17.07;63.96;99490.97;3132553;28;20038;-68
2023/06/02 03:38:14;;;;;;;;;;;;;;;17.08;63.95;99497.06;3146648;28;19959;-68
2023/06/02 03:39:45;;;;;;;;;;;;;;;17.10;64.11;99496.00;3146832;28;20046;-67
2023/06/02 03:41:17;;;;;;;;;;;;;;;17.10;64.08;99497.78;3146915;28;19927;-67
2023/06/02 03:42:49;;;;;;;;;;;;;;;17.09;64.13;99496.09;3138959;28;19947;-67
2023/06/02 03:44:20;;;;;;;;;;;;;;;17.10;64.17;99497.78;3140002;28;19978;-67
2023/06/02 03:45:52;;;;;;;;;;;;;;;17.11;63.84;99499.47;3142418;28;19920;-68
2023/06/02 03:47:23;;;;;;;;;;;;;;;17.10;63.90;99493.34;3144575;28;19928;-67
2023/06/02 03:48:54;;;;;;;;;;;;;;;17.10;64.04;99489.91;3133575;28;19921;-68
2023/06/02 03:50:26;;;;;;;;;;;;;;;17.09;64.14;99491.66;3139819;28;19997;-67
2023/06/02 03:51:57;;;;;;;;;;;;;;;17.10;63.91;99495.16;3146262;28;19927;-68
2023/06/02 03:53:29;;;;;;;;;;;;;;;17.08;64.08;99491.81;3146891;28;19985;-67
2023/06/02 03:55:00;;;;;;;;;;;;;;;17.06;64.24;99489.28;3141022;28;19985;-68
2023/06/02 03:56:32;;;;;;;;;;;;;;;17.04;64.39;99486.78;3146619;28;19920;-68
2023/06/02 03:58:05;;;;;;;;;;;;;;;17.04;64.42;99492.03;3138084;28;19925;-68
2023/06/02 03:59:36;;;;;;;;;;;;;;;17.06;64.29;99491.91;3140566;28;19921;-68
2023/06/02 04:01:08;;;;;;;;;;;;;;;17.05;64.22;99483.19;3144364;28;19924;-68
2023/06/02 04:02:40;;;;;;;;;;;;;;;17.08;64.16;99483.91;3140049;28;20011;-69
2023/06/02 04:04:12;;;;;;;;;;;;;;;17.08;64.20;99484.75;3143301;28;19997;-68
2023/06/02 04:05:43;;;;;;;;;;;;;;;17.10;64.12;99479.38;3146317;28;20369;-66
2023/06/02 04:07:15;;;;;;;;;;;;;;;17.12;64.20;99493.22;3144395;28;20359;-65
2023/06/02 04:08:46;;;;;;;;;;;;;;;17.13;64.17;99485.22;3146458;28;20313;-68
2023/06/02 04:10:18;;;;;;;;;;;;;;;17.16;63.94;99492.06;3146414;28;20404;-69
2023/06/02 04:11:50;;;;;;;;;;;;;;;17.18;63.99;99490.13;3145674;28;20246;-68
2023/06/02 04:13:23;;;;;;;;;;;;;;;17.21;63.96;99492.50;3136487;28;20104;-66
2023/06/02 04:14:55;;;;;;;;;;;;;;;17.23;64.05;99488.81;3133943;28;19960;-68
2023/06/02 04:16:26;;;;;;;;;;;;;;;17.28;64.01;99488.47;3133880;28;19921;-68
2023/06/02 04:17:58;;;;;;;;;;;;;;;17.32;63.87;99486.41;3141978;28;19925;-69
2023/06/02 04:19:30;;;;;;;;;;;;;;;17.34;63.71;99485.34;3146443;28;20003;-67
2023/06/02 04:21:01;;;;;;;;;;;;;;;17.38;63.58;99488.56;3146283;28;19951;-69
2023/06/02 04:22:32;;;;;;;;;;;;;;;17.38;63.43;99492.03;3145707;28;19925;-67
2023/06/02 04:24:03;;;;;;;;;;;;;;;17.40;63.71;99491.94;3145962;28;20412;-68
2023/06/02 04:25:47;;;;;;;;;;;;;;;17.42;63.50;99490.88;3141172;28;19920;-68
2023/06/02 04:27:19;;;;;;;;;;;;;;;17.48;63.59;99487.75;3144725;28;19925;-66
2023/06/02 04:28:52;;;;;;;;;;;;;;;17.54;63.41;99494.31;3133768;28;20362;-68
2023/06/02 04:30:23;;;;;;;;;;;;;;;17.59;63.17;99493.94;3137160;28;19982;-67
2023/06/02 04:31:55;;;;;;;;;;;;;;;17.63;63.18;99493.59;3138658;28;19935;-67
2023/06/02 04:33:27;;;;;;;;;;;;;;;17.66;62.88;99495.97;3144169;28;20402;-67
2023/06/02 04:34:57;;;;;;;;;;;;;;;17.72;62.94;99498.13;3145864;28;20429;-65
2023/06/02 04:36:29;;;;;;;;;;;;;;;17.73;62.75;99494.53;3136823;28;19920;-65
2023/06/02 04:38:00;;;;;;;;;;;;;;;17.78;62.74;99499.47;3141401;28;20259;-64
2023/06/02 04:39:31;;;;;;;;;;;;;;;17.81;62.71;99496.59;3146302;28;20321;-66
2023/06/02 04:41:06;;;;;;;;;;;;;;;17.86;62.54;99499.66;3146251;28;19920;-67
2023/06/02 04:42:38;;;;;;;;;;;;;;;17.88;62.53;99496.94;3139376;28;19921;-64
2023/06/02 04:44:11;;;;;;;;;;;;;;;17.87;62.47;99490.81;3133667;28;20412;-66
2023/06/02 04:45:45;;;;;;;;;;;;;;;17.89;62.67;99494.16;3140400;28;20313;-64
2023/06/02 04:47:17;;;;;;;;;;;;;;;17.94;62.50;99493.78;3145926;28;19920;-64
2023/06/02 04:48:48;;;;;;;;;;;;;;;18.00;62.48;99495.09;3145467;28;19925;-65
2023/06/02 04:50:20;;;;;;;;;;;;;;;18.08;62.16;99500.59;3145725;28;19920;-64
2023/06/02 04:51:52;;;;;;;;;;;;;;;18.13;62.12;99499.25;3146013;28;19921;-64
2023/06/02 04:53:23;;;;;;;;;;;;;;;18.19;61.92;99498.75;3145463;28;19938;-62
2023/06/02 04:54:55;;;;;;;;;;;;;;;18.22;61.81;99500.31;3143507;28;19931;-64
2023/06/02 04:56:27;;;;;;;;;;;;;;;18.25;61.64;99494.78;3145771;28;19981;-66
2023/06/02 04:57:57;;;;;;;;;;;;;;;18.28;61.58;99506.84;3141456;28;19925;-64
2023/06/02 04:59:33;;;;;;;;;;;;;;;18.30;61.45;99503.13;3134311;28;19931;-66
2023/06/02 05:01:10;;;;;;;;;;;;;;;18.32;61.19;99503.03;3135923;28;19964;-65
2023/06/02 05:02:42;;;;;;;;;;;;;;;18.35;61.29;99500.13;3127029;28;19926;-66
2023/06/02 05:04:13;;;;;;;;;;;;;;;18.37;61.12;99508.75;3145617;28;19924;-68
2023/06/02 05:05:45;;;;;;;;;;;;;;;18.39;60.94;99493.63;3145260;28;19924;-68
2023/06/02 05:07:17;;;;;;;;;;;;;;;18.44;60.95;99504.66;3139244;28;19931;-68
2023/06/02 05:08:48;;;;;;;;;;;;;;;18.51;60.90;99502.34;3145570;28;19924;-67
2023/06/02 05:10:20;;;;;;;;;;;;;;;18.55;60.88;99509.88;3121052;28;19921;-67
2023/06/02 05:11:53;;;;;;;;;;;;;;;18.60;60.62;99509.47;3143113;28;20342;-65
2023/06/02 05:13:27;;;;;;;;;;;;;;;18.65;60.54;99505.50;3135916;28;19983;-65
2023/06/02 05:15:00;;;;;;;;;;;;;;;18.72;60.60;99511.09;3135088;28;20386;-65
2023/06/02 05:16:32;;;;;;;;;;;;;;;18.77;60.49;99508.09;3145534;28;19920;-64
2023/06/02 05:18:04;;;;;;;;;;;;;;;18.81;60.42;99515.66;3138516;28;19981;-64
2023/06/02 05:19:35;;;;;;;;;;;;;;;18.85;60.30;99516.22;3130605;28;19925;-66
2023/06/02 05:21:08;;;;;;;;;;;;;;;18.88;60.24;99517.78;3143040;28;20002;-64
2023/06/02 05:22:40;;;;;;;;;;;;;;;18.91;60.20;99520.97;3145228;28;19970;-66
2023/06/02 05:24:11;;;;;;;;;;;;;;;18.91;60.07;99518.34;3145549;28;19974;-64
2023/06/02 05:25:43;;;;;;;;;;;;;;;18.90;60.10;99519.31;3145327;28;20039;-65
2023/06/02 05:27:15;;;;;;;;;;;;;;;18.85;60.25;99516.22;3137864;28;20718;-65
2023/06/02 05:28:49;;;;;;;;;;;;;;;18.84;60.32;99517.16;3133317;28;19921;-66
2023/06/02 05:30:22;;;;;;;;;;;;;;;18.83;60.37;99521.59;3121408;28;20295;-66
2023/06/02 05:31:53;;;;;;;;;;;;;;;18.85;60.28;99516.22;3132695;28;20402;-65
2023/06/02 05:33:25;;;;;;;;;;;;;;;18.91;60.34;99525.44;3121104;28;20023;-65
2023/06/02 05:34:56;;;;;;;;;;;;;;;18.98;60.23;99522.13;3143618;28;20904;-65
2023/06/02 05:36:28;;;;;;;;;;;;;;;19.03;60.16;99521.75;3140300;28;20408;-63
2023/06/02 05:38:00;;;;;;;;;;;;;;;19.10;60.06;99512.31;3141102;28;19927;-64
2023/06/02 05:39:34;;;;;;;;;;;;;;;19.18;59.82;99519.59;3145323;28;20385;-64
2023/06/02 05:41:06;;;;;;;;;;;;;;;19.25;59.86;99515.47;3135581;28;19921;-64
2023/06/02 05:42:37;;;;;;;;;;;;;;;19.31;59.70;99515.78;3132490;28;19924;-64
2023/06/02 05:44:09;;;;;;;;;;;;;;;19.36;59.71;99520.66;3140344;28;19940;-63
2023/06/02 05:45:42;;;;;;;;;;;;;;;19.43;59.56;99519.19;3139937;28;19920;-64
2023/06/02 05:47:14;;;;;;;;;;;;;;;19.47;59.44;99525.03;3145180;28;20077;-64
2023/06/02 05:48:46;;;;;;;;;;;;;;;19.52;59.65;99530.72;3145288;28;20610;-64
2023/06/02 05:50:17;;;;;;;;;;;;;;;19.54;59.56;99521.69;3145387;28;20385;-63
2023/06/02 05:51:49;;;;;;;;;;;;;;;19.60;59.57;99528.25;3144560;28;20390;-63
2023/06/02 05:53:20;;;;;;;;;;;;;;;19.68;59.68;99540.84;3144922;28;19924;-63
2023/06/02 05:54:52;;;;;;;;;;;;;;;19.75;59.28;99537.50;3140323;28;20263;-64
2023/06/02 05:56:24;;;;;;;;;;;;;;;19.80;59.03;99546.88;3139275;28;19932;-63
2023/06/02 05:57:57;;;;;;;;;;;;;;;19.80;58.87;99541.56;3143830;28;19924;-63
2023/06/02 05:59:29;;;;;;;;;;;;;;;19.85;58.80;99548.13;3140365;28;19925;-63
2023/06/02 06:01:02;;;;;;;;;;;;;;;19.87;58.60;99534.78;3136917;28;19928;-65
2023/06/02 06:02:33;;;;;;;;;;;;;;;19.89;58.81;99535.47;3145182;28;19924;-62
2023/06/02 06:04:05;;;;;;;;;;;;;;;19.92;58.46;99535.22;3144255;28;20416;-63
2023/06/02 06:05:37;;;;;;;;;;;;;;;19.89;58.58;99533.66;3143662;28;20001;-63
2023/06/02 06:07:09;;;;;;;;;;;;;;;19.92;58.50;99533.41;3140058;28;19925;-65
2023/06/02 06:08:41;;;;;;;;;;;;;;;19.95;58.22;99534.94;3141834;28;20313;-63
2023/06/02 06:10:12;;;;;;;;;;;;;;;19.99;58.32;99536.31;3139782;28;20385;-63
2023/06/02 06:11:44;;;;;;;;;;;;;;;20.02;58.11;99536.06;3143624;28;19924;-63
2023/06/02 06:13:16;;;;;;;;;;;;;;;20.07;58.17;99543.59;3139405;28;20373;-65
2023/06/02 06:14:47;;;;;;;;;;;;;;;20.12;57.94;99542.22;3142364;28;19924;-64
2023/06/02 06:16:21;;;;;;;;;;;;;;;20.19;57.89;99545.97;3138893;28;19967;-63
2023/06/02 06:17:53;;;;;;;;;;;;;;;20.27;57.74;99534.72;3131790;28;20581;-63
2023/06/02 06:19:24;;;;;;;;;;;;;;;20.39;57.62;99538.06;3141724;28;20141;-63
2023/06/02 06:20:56;;;;;;;;;;;;;;;20.46;57.50;99536.53;3136303;28;19933;-62
2023/06/02 06:22:28;;;;;;;;;;;;;;;20.54;57.33;99533.22;3133150;28;20078;-67
2023/06/02 06:24:00;;;;;;;;;;;;;;;20.63;57.33;99532.38;3132958;28;19924;-65
2023/06/02 06:25:31;;;;;;;;;;;;;;;20.73;57.20;99535.84;3140071;28;20396;-69
2023/06/02 06:27:03;;;;;;;;;;;;;;;20.83;57.16;99536.69;3137385;28;19924;-69
2023/06/02 06:28:35;;;;;;;;;;;;;;;20.88;56.87;99530.94;3137214;28;20391;-66
2023/06/02 06:30:07;;;;;;;;;;;;;;;20.96;56.68;99532.91;3139008;28;20007;-67
2023/06/02 06:31:40;;;;;;;;;;;;;;;21.08;56.57;99529.09;3145173;28;19921;-67
2023/06/02 06:33:12;;;;;;;;;;;;;;;21.19;56.13;99536.06;3144196;28;19924;-66
2023/06/02 06:34:44;;;;;;;;;;;;;;;21.25;56.22;99523.06;3137345;28;20450;-67
2023/06/02 06:36:16;;;;;;;;;;;;;;;21.34;55.90;99527.50;3138047;28;20338;-66
2023/06/02 06:37:47;;;;;;;;;;;;;;;21.41;55.71;99530.44;3135810;28;20489;-66
2023/06/02 06:39:22;;;;;;;;;;;;;;;21.49;55.52;99527.06;3140209;28;20003;-66
2023/06/02 06:40:54;;;;;;;;;;;;;;;21.62;55.25;99524.06;3140415;28;19924;-66
2023/06/02 06:42:26;;;;;;;;;;;;;;;21.76;55.28;99521.75;3139828;28;20449;-64
2023/06/02 06:43:57;;;;;;;;;;;;;;;21.90;55.02;99520.44;3134704;28;19967;-66
2023/06/02 06:45:29;;;;;;;;;;;;;;;21.99;54.74;99514.25;3134688;28;19975;-67
2023/06/02 06:47:02;;;;;;;;;;;;;;;22.06;54.39;99510.97;3144551;28;20012;-66
2023/06/02 06:48:34;;;;;;;;;;;;;;;22.14;54.50;99508.41;3144828;28;19924;-65
2023/06/02 06:50:06;;;;;;;;;;;;;;;22.26;54.13;99501.94;3143924;28;20384;-66
2023/06/02 06:51:38;;;;;;;;;;;;;;;22.39;53.70;99501.53;3138235;28;20726;-65
2023/06/02 06:53:20;;;;;;;;;;;;;;;22.53;53.38;99506.31;3144610;28;19985;-66
2023/06/02 06:54:52;;;;;;;;;;;;;;;;;;3129074;28;20015;-65
2023/06/02 06:56:24;;;;;;;;;;;;;;;22.74;53.04;99499.84;3131093;28;19924;-63
2023/06/02 06:57:55;;;;;;;;;;;;;;;22.78;53.11;99493.25;3134103;28;20401;-64
2023/06/02 06:59:27;;;;;;;;;;;;;;;22.82;53.00;99498.09;3139404;28;20011;-63
2023/06/02 07:00:59;;;;;;;;;;;;;;;22.87;52.65;99501.13;3144161;28;20011;-63
2023/06/02 07:02:32;;;;;;;;;;;;;;;22.93;52.80;99502.31;3144566;28;19985;-64
2023/06/02 07:04:04;;;;;;;;;;;;;;;22.93;52.58;99497.00;3136136;28;20365;-65
2023/06/02 07:05:36;;;;;;;;;;;;;;;23.04;52.69;99501.25;3135232;28;19924;-66
2023/06/02 07:07:08;;;;;;;;;;;;;;;23.08;52.29;99497.31;3141906;28;20364;-66
2023/06/02 07:08:40;;;;;;;;;;;;;;;23.15;52.55;99504.47;3144356;28;19920;-65
2023/06/02 07:10:13;;;;;;;;;;;;;;;23.27;51.85;99493.56;3139170;28;19928;-66
2023/06/02 07:11:45;;;;;;;;;;;;;;;23.38;51.26;99501.28;3142214;28;20360;-65
2023/06/02 07:13:18;;;;;;;;;;;;;;;23.51;51.10;99501.66;3133247;28;20287;-68
2023/06/02 07:14:51;;;;;;;;;;;;;;;23.69;50.04;99504.22;3134349;28;19952;-68
2023/06/02 07:16:23;;;;;;;;;;;;;;;23.81;49.87;99504.78;3141042;28;19921;-69
2023/06/02 07:17:57;;;;;;;;;;;;;;;23.92;49.30;99503.66;3143749;28;19920;-67
2023/06/02 07:19:31;;;;;;;;;;;;;;;24.01;49.12;99508.81;3141971;28;19925;-69
2023/06/02 07:21:03;;;;;;;;;;;;;;;24.12;49.23;99510.34;3143426;28;20355;-68
2023/06/02 07:22:35;;;;;;;;;;;;;;;24.23;48.99;99498.56;3138479;28;19924;-69
2023/06/02 07:24:09;;;;;;;;;;;;;;;24.35;48.80;99505.25;3146940;28;19928;-69
2023/06/02 07:25:41;;;;;;;;;;;;;;;24.45;48.91;99503.25;3147062;28;19935;-68
2023/06/02 07:27:14;;;;;;;;;;;;;;;24.56;48.75;99499.44;3145981;28;19956;-68
2023/06/02 07:28:46;;;;;;;;;;;;;;;24.64;48.71;99494.13;3135778;28;20019;-68
2023/06/02 07:30:18;;;;;;;;;;;;;;;24.67;48.19;99493.78;3146726;28;19927;-64
2023/06/02 07:31:49;;;;;;;;;;;;;;;24.69;48.66;99496.28;3146558;28;19921;-66
2023/06/02 07:33:22;;;;;;;;;;;;;;;24.72;48.49;99494.09;3136375;28;20352;-66
2023/06/02 07:34:54;;;;;;;;;;;;;;;24.75;48.15;99485.78;3146462;28;19927;-66
2023/06/02 07:36:26;;;;;;;;;;;;;;;24.83;48.12;99484.13;3142876;28;20020;-65
2023/06/02 07:37:58;;;;;;;;;;;;;;;24.94;48.21;99483.78;3146079;28;20365;-63
2023/06/02 07:39:30;;;;;;;;;;;;;;;25.00;47.59;99483.09;3146273;28;19921;-63
2023/06/02 07:41:02;;;;;;;;;;;;;;;25.00;46.97;99487.59;3145918;28;20011;-64
2023/06/02 07:42:33;;;;;;;;;;;;;;;24.96;46.88;99497.72;3142330;28;19924;-64
2023/06/02 07:44:05;;;;;;;;;;;;;;;24.92;46.49;99491.09;3135351;28;19975;-65
2023/06/02 07:45:37;;;;;;;;;;;;;;;24.89;45.94;99496.75;3146498;28;19963;-65
2023/06/02 07:47:10;;;;;;;;;;;;;;;24.81;46.10;99494.94;3143675;28;20001;-64
2023/06/02 07:48:43;;;;;;;;;;;;;;;24.79;46.28;99496.09;3138365;28;19926;-65
2023/06/02 07:50:15;;;;;;;;;;;;;;;24.84;46.55;99488.44;3139217;28;20578;-63
2023/06/02 07:51:46;;;;;;;;;;;;;;;24.90;46.49;99493.91;3144619;28;19928;-64
2023/06/02 07:53:18;;;;;;;;;;;;;;;24.92;45.83;99489.25;3145042;28;20442;-64
2023/06/02 07:54:50;;;;;;;;;;;;;;;24.91;46.10;99487.59;3138756;28;19920;-64
2023/06/02 07:56:21;;;;;;;;;;;;;;;24.95;45.98;99491.59;3146207;28;19920;-64
2023/06/02 07:57:53;;;;;;;;;;;;;;;25.03;45.82;99489.91;3143309;28;19930;-65
2023/06/02 07:59:25;;;;;;;;;;;;;;;25.12;45.94;99488.91;3137977;28;20459;-64